Time;durP1;ratioP1;P1;durP2;ratioP2;P2;SDS_P1;SDS_P2;PMS_P1;PMS_P2;Temp;Humidity;BMP_temperature;BMP_pressure;BME280_temperature;BME280_humidity;BME280_pressure;Samples;Min_cycle;Max_cycle;Signal;HPM_P1;HPM_P2
2022/06/10 00:00:31;;;;;;;0.38;0.38;;;;;;;16.78;62.21;101532.69;5132723;28;20508;-81
2022/06/10 00:03:01;;;;;;;0.80;0.80;;;;;;;16.74;62.05;101537.25;5113288;28;20030;-81
2022/06/10 00:05:36;;;;;;;0.40;0.40;;;;;;;16.74;61.52;101536.38;5110696;28;20448;-81
2022/06/10 00:08:10;;;;;;;1.65;1.02;;;;;;;16.72;61.78;101533.78;5125301;28;20045;-81
2022/06/10 00:10:42;;;;;;;0.30;0.30;;;;;;;16.67;61.54;101536.63;5123703;28;20046;-81
2022/06/10 00:13:13;;;;;;;0.38;0.38;;;;;;;16.67;61.31;101536.63;5132233;28;20591;-81
2022/06/10 00:15:45;;;;;;;0.30;0.30;;;;;;;16.68;61.48;101537.50;5120956;28;20101;-81
2022/06/10 00:18:16;;;;;;;0.88;0.88;;;;;;;16.66;61.86;101532.25;5097942;28;20073;-81
2022/06/10 00:20:47;;;;;;;0.30;0.30;;;;;;;16.61;61.98;101538.66;5121781;28;20045;-81
2022/06/10 00:23:19;;;;;;;0.50;0.50;;;;;;;16.58;61.71;101534.34;5138286;28;20035;-81
2022/06/10 00:25:50;;;;;;;0.47;0.47;;;;;;;16.55;61.40;101537.13;5162162;28;20051;-82
2022/06/10 00:28:20;;;;;;;0.30;0.30;;;;;;;16.51;61.90;101535.50;5148457;28;20027;-81
2022/06/10 00:30:51;;;;;;;8.02;1.45;;;;;;;16.51;61.85;101532.84;5137803;28;20042;-81
2022/06/10 00:33:24;;;;;;;0.38;0.38;;;;;;;16.49;61.85;101532.91;5109017;28;20255;-81
2022/06/10 00:35:55;;;;;;;0.30;0.30;;;;;;;16.46;61.76;101532.19;5119630;28;20598;-81
2022/06/10 00:38:25;;;;;;;1.17;1.17;;;;;;;16.41;62.13;101531.47;5090444;28;20030;-81
2022/06/10 00:40:56;;;;;;;0.55;0.55;;;;;;;16.44;62.01;101528.72;5136630;28;20055;-81
2022/06/10 00:43:34;;;;;;;1.23;1.08;;;;;;;16.38;62.08;101542.22;5132433;28;20031;-80
2022/06/10 00:46:32;;;;;;;1.25;1.15;;;;;;;16.34;61.74;101538.81;5151218;28;20519;-81
2022/06/10 00:49:07;;;;;;;0.30;0.30;;;;;;;16.25;62.83;101534.72;5133351;28;20228;-81
2022/06/10 00:51:41;;;;;;;0.50;0.50;;;;;;;16.30;61.90;101532.78;5097792;29;20044;-81
2022/06/10 00:54:23;;;;;;;0.40;0.40;;;;;;;16.28;61.81;101539.91;5109602;28;20102;-81
2022/06/10 00:57:17;;;;;;;0.30;0.30;;;;;;;16.23;61.90;101531.28;5144666;28;20647;-81
2022/06/10 00:59:56;;;;;;;0.75;0.75;;;;;;;16.25;61.58;101539.16;5140831;28;20343;-81
2022/06/10 01:02:31;;;;;;;3.72;1.52;;;;;;;16.19;61.63;101535.84;5136132;28;20050;-82
2022/06/10 01:05:09;;;;;;;0.75;0.73;;;;;;;16.19;62.14;101540.25;5127078;28;20026;-81
2022/06/10 01:07:50;;;;;;;2.10;1.30;;;;;;;16.15;61.47;101538.66;5108747;28;20039;-81
2022/06/10 01:10:21;;;;;;;0.88;0.88;;;;;;;16.15;61.34;101538.66;5150542;28;20027;-81
2022/06/10 01:13:12;;;;;;;1.15;1.05;;;;;;;16.12;61.63;101541.41;5150878;28;20035;-82
2022/06/10 01:15:46;;;;;;;1.55;1.45;;;;;;;16.08;61.68;101537.13;5124716;28;20051;-81
2022/06/10 01:18:24;;;;;;;0.85;0.85;;;;;;;16.10;61.60;101535.28;5134938;28;20668;-81
2022/06/10 01:21:30;;;;;;;1.27;1.17;;;;;;;16.04;61.83;101536.38;5131684;28;20105;-81
2022/06/10 01:24:27;;;;;;;0.38;0.38;;;;;;;15.99;62.03;101528.59;5131204;28;20567;-81
2022/06/10 01:27:49;;;;;;;0.65;0.65;;;;;;;15.99;61.83;101533.06;5135489;28;20287;-81
2022/06/10 01:30:40;;;;;;;0.30;0.30;;;;;;;16.00;61.71;101537.44;5133469;28;20035;-81
2022/06/10 01:33:25;;;;;;;0.20;0.20;;;;;;;15.93;61.63;101539.44;5131339;28;20128;-80
2022/06/10 01:36:11;;;;;;;0.77;0.77;;;;;;;15.93;61.95;101538.56;5123898;28;20055;-81
2022/06/10 01:39:00;;;;;;;4.20;2.17;;;;;;;15.88;61.86;101544.88;5138351;28;20041;-80
2022/06/10 01:41:51;;;;;;;0.50;0.50;;;;;;;15.84;61.88;101545.94;5134417;28;20050;-80
2022/06/10 01:44:44;;;;;;;0.28;0.28;;;;;;;15.80;62.04;101546.06;5117921;28;20035;-81
2022/06/10 01:47:25;;;;;;;0.40;0.40;;;;;;;15.80;61.78;101548.72;5101267;28;20058;-80
2022/06/10 01:50:18;;;;;;;0.40;0.40;;;;;;;15.77;61.77;101548.81;5132834;28;20027;-80
2022/06/10 01:52:56;;;;;;;0.60;0.60;;;;;;;15.72;62.00;101541.03;5131630;28;20062;-80
2022/06/10 01:55:35;;;;;;;0.75;0.75;;;;;;;15.70;61.67;101543.75;5111720;28;20151;-80
2022/06/10 01:58:21;;;;;;;0.50;0.50;;;;;;;15.69;61.88;101542.00;5131984;28;20122;-80
2022/06/10 02:01:05;;;;;;;12.73;0.70;;;;;;;15.68;62.03;101548.22;5131838;28;20043;-80
2022/06/10 02:03:46;;;;;;;0.45;0.45;;;;;;;15.66;61.88;101546.56;5132247;28;20038;-81
2022/06/10 02:06:23;;;;;;;1.02;0.60;;;;;;;15.63;61.88;101547.53;5123728;28;20102;-80
2022/06/10 02:08:58;;;;;;;0.55;0.55;;;;;;;15.63;61.88;101562.53;5120161;28;20053;-81
2022/06/10 02:11:32;;;;;;;0.40;0.40;;;;;;;15.58;61.99;101558.28;5113324;28;20522;-80
2022/06/10 02:14:07;;;;;;;0.28;0.28;;;;;;;15.55;62.03;101549.56;5109682;28;20053;-80
2022/06/10 02:16:44;;;;;;;0.47;0.47;;;;;;;15.54;61.78;101553.13;5115755;28;20046;-80
2022/06/10 02:19:53;;;;;;;0.55;0.55;;;;;;;15.53;62.03;101551.41;5096701;28;20035;-80
2022/06/10 02:22:34;;;;;;;1.20;1.10;;;;;;;15.46;61.96;101555.19;5100164;28;20042;-80
2022/06/10 02:25:30;;;;;;;0.40;0.40;;;;;;;15.44;62.12;101560.53;5129620;28;20027;-79
2022/06/10 02:28:09;;;;;;;0.30;0.30;;;;;;;15.42;61.87;101565.84;5126564;28;20046;-80
2022/06/10 02:30:51;;;;;;;0.95;0.95;;;;;;;15.39;62.37;101565.09;5103995;28;20050;-80
2022/06/10 02:33:22;;;;;;;3.40;1.27;;;;;;;15.39;61.68;101567.72;5130106;28;20118;-80
2022/06/10 02:35:58;;;;;;;0.40;0.40;;;;;;;15.35;62.11;101569.63;5111985;28;20122;-80
2022/06/10 02:38:46;;;;;;;0.47;0.47;;;;;;;15.32;61.79;101567.09;5125145;28;20027;-79
2022/06/10 02:41:32;;;;;;;0.43;0.43;;;;;;;15.30;61.90;101566.28;5136298;28;20047;-80
2022/06/10 02:44:19;;;;;;;0.57;0.45;;;;;;;15.28;61.85;101565.47;5114466;28;20043;-81
2022/06/10 02:47:00;;;;;;;0.43;0.38;;;;;;;15.25;61.99;101570.84;5134938;28;20066;-81
2022/06/10 02:49:31;;;;;;;18.60;0.88;;;;;;;15.23;61.95;101568.25;5108008;28;20081;-80
2022/06/10 02:52:12;;;;;;;1.80;1.67;;;;;;;15.19;61.67;101574.56;5112946;28;20078;-80
2022/06/10 02:54:45;;;;;;;0.65;0.65;;;;;;;15.17;61.65;101572.88;5137367;28;20671;-80
2022/06/10 02:57:20;;;;;;;0.68;0.47;;;;;;;15.15;61.90;101580.84;5120316;28;20078;-80
2022/06/10 03:03:01;;;;;;;0.60;0.60;;;;;;;15.09;62.03;101579.28;5119898;28;20051;-80
2022/06/10 03:05:53;;;;;;;2.13;0.77;;;;;;;15.08;61.95;101576.69;5136356;28;20492;-80
2022/06/10 03:08:30;;;;;;;1.45;0.68;;;;;;;15.04;62.03;101581.22;5125329;28;20360;-80
2022/06/10 03:11:00;;;;;;;0.30;0.30;;;;;;;15.00;61.98;101576.06;5129241;28;20057;-79
2022/06/10 03:13:34;;;;;;;0.60;0.60;;;;;;;14.99;62.14;101577.88;5142614;28;20090;-81
2022/06/10 03:16:17;;;;;;;1.17;0.70;;;;;;;14.98;62.78;101581.41;5110790;28;20360;-80
2022/06/10 03:19:33;;;;;;;0.30;0.30;;;;;;;14.94;62.41;101574.47;5113018;28;20034;-80
2022/06/10 03:22:36;;;;;;;0.45;0.45;;;;;;;14.91;62.56;101583.38;5099380;28;20130;-81
2022/06/10 03:25:30;;;;;;;0.45;0.40;;;;;;;14.94;62.69;101585.06;5120581;28;20031;-80
2022/06/10 03:28:36;;;;;;;0.70;0.70;;;;;;;14.91;62.51;101587.81;5114246;28;20122;-80
2022/06/10 03:31:16;;;;;;;0.20;0.20;;;;;;;14.93;62.82;101593.88;5118503;28;20038;-80
2022/06/10 03:33:54;;;;;;;0.75;0.68;;;;;;;14.91;62.61;101599.22;5137813;28;20035;-80
2022/06/10 03:36:27;;;;;;;0.50;0.50;;;;;;;14.88;63.12;101590.53;5098255;28;20046;-79
2022/06/10 03:38:59;;;;;;;0.40;0.40;;;;;;;14.86;63.44;101597.63;5122906;28;20040;-79
2022/06/10 03:41:34;;;;;;;1.02;1.02;;;;;;;14.87;63.15;101588.81;5127796;28;20035;-80
2022/06/10 03:44:17;;;;;;;0.45;0.45;;;;;;;14.84;63.25;101599.47;5145159;28;20041;-81
2022/06/10 03:46:50;;;;;;;6.53;1.15;;;;;;;14.85;63.12;101606.47;5101405;28;20117;-80
2022/06/10 03:49:27;;;;;;;0.45;0.45;;;;;;;14.82;63.49;101601.31;5114181;28;20051;-80
2022/06/10 03:51:59;;;;;;;0.40;0.40;;;;;;;14.83;63.24;101605.69;5134583;28;20043;-80
2022/06/10 03:54:30;;;;;;;0.50;0.50;;;;;;;14.84;63.34;101608.25;5109494;29;20103;-81
2022/06/10 03:57:00;;;;;;;1.40;0.98;;;;;;;14.81;63.10;101612.78;5135617;28;20046;-80
2022/06/10 03:59:31;;;;;;;0.40;0.40;;;;;;;14.78;64.29;101609.31;5150498;28;20435;-80
2022/06/10 04:02:02;;;;;;;3.20;1.35;;;;;;;14.83;63.83;101610.97;5131700;28;20067;-81
2022/06/10 04:04:35;;;;;;;0.82;0.82;;;;;;;14.79;63.74;101612.84;5105532;28;20038;-81
2022/06/10 04:07:07;;;;;;;1.50;1.40;;;;;;;14.84;63.49;101615.31;5105051;28;20046;-81
2022/06/10 04:09:37;;;;;;;0.30;0.30;;;;;;;14.82;63.44;101609.22;5132772;28;20059;-80
2022/06/10 04:12:08;;;;;;;0.47;0.47;;;;;;;14.84;63.43;101615.31;5134022;28;20042;-80
2022/06/10 04:14:39;;;;;;;0.30;0.30;;;;;;;14.85;63.30;101617.94;5137695;28;20450;-80
2022/06/10 04:17:11;;;;;;;0.40;0.40;;;;;;;14.85;63.63;101617.94;5118171;28;20051;-81
2022/06/10 04:19:41;;;;;;;0.88;0.80;;;;;;;14.91;63.85;101624.81;5152807;28;20070;-81
2022/06/10 04:22:12;;;;;;;0.30;0.30;;;;;;;14.89;64.00;101616.91;5131069;28;20155;-81
2022/06/10 04:24:42;;;;;;;0.30;0.30;;;;;;;14.85;66.07;101627.63;5153848;28;20030;-79
2022/06/10 04:27:13;;;;;;;1.48;0.60;;;;;;;14.88;64.28;101631.03;5124028;28;20058;-81
2022/06/10 04:29:44;;;;;;;0.90;0.60;;;;;;;14.92;63.99;101629.16;5138675;28;20038;-79
2022/06/10 04:32:15;;;;;;;2.63;0.80;;;;;;;14.94;64.11;101624.69;5131779;28;20050;-80
2022/06/10 04:34:45;;;;;;;0.38;0.38;;;;;;;14.97;64.23;101627.25;5129261;28;20161;-81
2022/06/10 04:37:16;;;;;;;0.45;0.45;;;;;;;14.94;66.09;101629.97;5127809;28;20039;-81
2022/06/10 04:39:47;;;;;;;1.17;1.10;;;;;;;15.00;65.11;101632.41;5116886;28;20035;-81
2022/06/10 04:42:17;;;;;;;0.60;0.60;;;;;;;14.97;66.43;101629.91;5134872;28;20043;-80
2022/06/10 04:44:48;;;;;;;0.95;0.40;;;;;;;14.98;65.90;101634.28;5119441;28;20034;-80
2022/06/10 04:47:18;;;;;;;7.82;0.80;;;;;;;15.06;65.39;101628.72;5130234;28;20208;-80
2022/06/10 04:49:49;;;;;;;1.15;1.05;;;;;;;15.04;65.96;101633.22;5136127;28;20035;-80
2022/06/10 04:52:19;;;;;;;3.72;1.90;;;;;;;15.06;66.19;101632.25;5109051;28;20034;-80
2022/06/10 04:54:52;;;;;;;0.38;0.38;;;;;;;15.09;65.38;101628.63;5107948;28;20037;-80
2022/06/10 04:57:23;;;;;;;3.13;0.45;;;;;;;15.15;65.22;101631.09;5132734;28;20035;-80
2022/06/10 04:59:53;;;;;;;1.13;1.02;;;;;;;15.16;65.00;101634.59;5118442;28;20045;-80
2022/06/10 05:02:24;;;;;;;0.63;0.63;;;;;;;15.19;65.12;101627.44;5150172;28;20038;-80
2022/06/10 05:04:55;;;;;;;0.40;0.40;;;;;;;15.20;65.18;101633.59;5134050;28;20031;-80
2022/06/10 05:07:26;;;;;;;0.98;0.98;;;;;;;15.20;64.74;101636.22;5103665;28;20764;-80
2022/06/10 05:09:56;;;;;;;1.00;0.95;;;;;;;15.15;66.19;101640.81;5131514;28;20531;-80
2022/06/10 05:12:27;;;;;;;0.70;0.70;;;;;;;15.21;64.84;101637.97;5130799;28;20122;-81
2022/06/10 05:15:01;;;;;;;1.88;1.48;;;;;;;15.22;65.35;101637.06;5138032;28;20034;-81
2022/06/10 05:17:32;;;;;;;0.30;0.30;;;;;;;15.25;64.88;101631.66;5119934;28;20047;-82
2022/06/10 05:20:06;;;;;;;0.22;0.22;;;;;;;15.29;64.69;101632.44;5126190;28;20027;-80
2022/06/10 05:22:37;;;;;;;0.25;0.25;;;;;;;15.30;64.66;101635.03;5126888;28;20047;-81
2022/06/10 05:25:15;;;;;;;0.45;0.45;;;;;;;15.32;64.45;101632.31;5108965;28;20533;-80
2022/06/10 05:27:47;;;;;;;0.30;0.30;;;;;;;15.33;65.41;101639.34;5151856;28;20031;-80
2022/06/10 05:30:20;;;;;;;0.20;0.20;;;;;;;15.09;67.55;101634.78;5111578;28;20031;-79
2022/06/10 05:32:51;;;;;;;;;;;;;;;15.26;65.52;101634.25;5149657;28;20165;-80
2022/06/10 05:35:21;;;;;;;10.82;1.23;;;;;;;15.31;65.34;101634.13;5133588;28;20036;-79
2022/06/10 05:37:52;;;;;;;0.65;0.65;;;;;;;15.27;66.43;101640.41;5121625;28;20260;-80
2022/06/10 05:40:28;;;;;;;0.93;0.93;;;;;;;15.33;65.25;101640.19;5131278;28;20484;-81
2022/06/10 05:42:59;;;;;;;0.55;0.55;;;;;;;15.37;65.65;101641.00;5108441;28;20114;-80
2022/06/10 05:45:30;;;;;;;25.08;2.00;;;;;;;15.39;65.33;101637.38;5155601;28;20030;-80
2022/06/10 05:48:02;;;;;;;0.22;0.22;;;;;;;15.43;65.28;101646.91;5145557;28;20672;-80
2022/06/10 05:50:39;;;;;;;0.30;0.30;;;;;;;15.42;65.98;101645.19;5116299;28;20050;-78
2022/06/10 05:53:12;;;;;;;0.30;0.30;;;;;;;15.53;65.32;101649.25;5116605;28;20410;-80
2022/06/10 05:55:43;;;;;;;1.27;1.15;;;;;;;15.51;65.38;101648.44;5150952;28;20043;-80
2022/06/10 05:58:14;;;;;;;0.32;0.30;;;;;;;15.52;65.64;101658.09;5117658;28;20038;-80
2022/06/10 06:00:45;;;;;;;0.30;0.30;;;;;;;15.60;65.30;101663.16;5115950;28;20042;-81
2022/06/10 06:03:16;;;;;;;1.88;0.65;;;;;;;15.60;65.53;101655.22;5114878;28;20409;-80
2022/06/10 06:05:46;;;;;;;0.40;0.32;;;;;;;15.64;65.39;101660.38;5133134;28;20139;-80
2022/06/10 06:08:17;;;;;;;1.58;1.05;;;;;;;15.68;65.41;101661.97;5132596;28;20513;-80
2022/06/10 06:10:48;;;;;;;0.88;0.65;;;;;;;15.72;65.52;101668.91;5137158;28;20212;-80
2022/06/10 06:13:18;;;;;;;0.30;0.30;;;;;;;15.77;65.08;101666.13;5135346;28;20039;-81
2022/06/10 06:15:49;;;;;;;0.35;0.35;;;;;;;15.79;65.57;101674.84;5132998;28;20065;-81
2022/06/10 06:18:20;;;;;;;0.52;0.52;;;;;;;15.82;65.53;101672.09;5129769;28;20035;-80
2022/06/10 06:20:50;;;;;;;0.38;0.38;;;;;;;15.87;65.22;101669.31;5123096;28;20043;-81
2022/06/10 06:23:21;;;;;;;0.30;0.30;;;;;;;15.74;68.22;101672.34;5117172;28;20728;-81
2022/06/10 06:25:52;;;;;;;0.40;0.40;;;;;;;15.86;66.22;101672.88;5143268;28;20120;-81
2022/06/10 06:28:23;;;;;;;0.55;0.55;;;;;;;15.78;66.70;101673.13;5135083;28;20038;-79
2022/06/10 06:30:53;;;;;;;1.15;1.02;;;;;;;15.92;65.64;101670.03;5126663;28;20479;-78
2022/06/10 06:33:24;;;;;;;0.30;0.30;;;;;;;15.96;66.06;101674.31;5129759;28;20042;-80
2022/06/10 06:35:55;;;;;;;0.28;0.28;;;;;;;16.00;65.79;101678.56;5122091;28;20040;-80
2022/06/10 06:38:27;;;;;;;0.30;0.30;;;;;;;16.08;65.49;101674.78;5122948;28;20030;-79
2022/06/10 06:40:57;;;;;;;0.20;0.20;;;;;;;16.03;66.47;101675.81;5108355;28;20247;-80
2022/06/10 06:43:28;;;;;;;0.30;0.30;;;;;;;16.03;66.54;101673.19;5126032;28;20078;-79
2022/06/10 06:45:58;;;;;;;0.63;0.63;;;;;;;16.08;66.49;101680.97;5105159;28;20094;-79
2022/06/10 06:48:29;;;;;;;0.75;0.75;;;;;;;16.03;66.44;101678.47;5088590;28;20081;-79
2022/06/10 06:51:00;;;;;;;0.50;0.50;;;;;;;16.13;66.27;101678.16;5100132;28;20039;-79
2022/06/10 06:53:32;;;;;;;1.55;1.45;;;;;;;16.15;66.27;101681.63;5119190;29;20098;-79
2022/06/10 06:56:06;;;;;;;1.88;0.40;;;;;;;16.18;66.29;101684.13;5136145;28;20066;-80
2022/06/10 06:58:37;;;;;;;0.40;0.40;;;;;;;16.19;66.15;101676.16;5122471;28;20078;-81
2022/06/10 07:01:09;;;;;;;0.20;0.20;;;;;;;16.29;66.02;101679.34;5101336;28;20159;-80
2022/06/10 07:03:40;;;;;;;4.30;1.97;;;;;;;16.34;65.89;101685.31;5120460;28;20106;-80
2022/06/10 07:06:10;;;;;;;0.65;0.65;;;;;;;16.40;65.85;101678.09;5124939;28;20321;-80
2022/06/10 07:08:41;;;;;;;0.40;0.40;;;;;;;16.46;65.98;101685.81;5132548;28;20093;-80
2022/06/10 07:11:12;;;;;;;0.20;0.20;;;;;;;16.51;66.14;101691.78;5120674;28;20573;-80
2022/06/10 07:13:43;;;;;;;0.38;0.38;;;;;;;16.51;66.17;101684.72;5129377;28;20038;-80
2022/06/10 07:16:14;;;;;;;0.30;0.30;;;;;;;16.57;66.44;101686.25;5139538;28;20055;-80
2022/06/10 07:18:44;;;;;;;0.28;0.28;;;;;;;16.60;66.77;101687.97;5133573;28;20027;-79
2022/06/10 07:21:15;;;;;;;0.25;0.25;;;;;;;16.58;66.12;101697.75;5139739;28;20057;-80
2022/06/10 07:23:46;;;;;;;0.90;0.90;;;;;;;16.60;66.27;101696.75;5140881;28;20035;-79
2022/06/10 07:26:16;;;;;;;0.55;0.55;;;;;;;16.67;66.14;101703.56;5135350;28;20051;-80
2022/06/10 07:28:47;;;;;;;0.20;0.20;;;;;;;16.70;66.43;101707.88;5135063;28;20030;-79
2022/06/10 07:31:18;;;;;;;0.20;0.20;;;;;;;16.77;66.45;101705.88;5118516;28;20416;-79
2022/06/10 07:33:48;;;;;;;0.40;0.38;;;;;;;16.84;65.96;101712.66;5124904;28;20227;-79
2022/06/10 07:36:18;;;;;;;0.22;0.22;;;;;;;16.88;65.93;101713.41;5117808;28;20045;-79
2022/06/10 07:38:49;;;;;;;0.50;0.50;;;;;;;16.94;65.73;101708.78;5128227;28;20058;-80
2022/06/10 07:44:11;;;;;;;0.30;0.30;;;;;;;17.03;65.66;101710.19;5141961;28;20054;-80
2022/06/10 07:46:42;;;;;;;0.90;0.88;;;;;;;17.07;66.17;101700.34;5136387;28;20058;-80
2022/06/10 07:49:13;;;;;;;0.55;0.55;;;;;;;17.12;66.57;101709.84;5131685;28;20312;-80
2022/06/10 07:51:44;;;;;;;0.22;0.22;;;;;;;17.18;66.06;101706.09;5141490;28;20036;-79
2022/06/10 07:54:15;;;;;;;1.75;0.82;;;;;;;17.24;65.71;101705.84;5129580;28;20027;-80
2022/06/10 07:56:46;;;;;;;1.10;0.60;;;;;;;17.34;65.75;101697.53;5142107;28;20082;-80
2022/06/10 07:59:17;;;;;;;0.30;0.30;;;;;;;17.42;65.21;101704.28;5135133;28;20031;-80
2022/06/10 08:01:48;;;;;;;0.40;0.40;;;;;;;17.44;64.42;101694.44;5117170;28;20576;-80
2022/06/10 08:04:18;;;;;;;0.93;0.93;;;;;;;17.52;64.56;101699.44;5107282;28;20027;-79
2022/06/10 08:06:50;;;;;;;0.55;0.50;;;;;;;17.54;64.57;101696.72;5128388;28;20075;-78
2022/06/10 08:09:21;;;;;;;2.90;0.95;;;;;;;17.60;64.93;101696.50;5133655;28;20030;-79
2022/06/10 08:11:52;;;;;;;0.30;0.30;;;;;;;17.67;64.24;101697.97;5128451;28;20054;-79
2022/06/10 08:14:23;;;;;;;0.30;0.30;;;;;;;17.72;64.34;101700.44;5114933;28;20051;-80
2022/06/10 08:16:56;;;;;;;0.40;0.40;;;;;;;17.70;61.51;101703.13;5130019;28;20620;-80
2022/06/10 08:19:28;;;;;;;1.13;0.82;;;;;;;17.78;62.91;101706.31;5110257;28;20047;-80
2022/06/10 08:24:47;;;;;;;0.20;0.20;;;;;;;17.76;61.11;101704.66;5136061;28;20670;-79
2022/06/10 08:27:18;;;;;;;1.83;0.50;;;;;;;17.78;62.21;101711.63;5146182;28;20051;-80
2022/06/10 08:29:49;;;;;;;0.20;0.20;;;;;;;17.91;62.45;101717.28;5138883;28;20093;-79
2022/06/10 08:32:19;;;;;;;0.20;0.20;;;;;;;17.78;63.03;101716.09;5116517;28;20047;-80
2022/06/10 08:34:50;;;;;;;2.30;0.65;;;;;;;17.73;62.48;101723.34;5153970;28;20039;-80
2022/06/10 08:37:21;;;;;;;0.50;0.50;;;;;;;17.71;63.36;101719.94;5129849;28;20035;-79
2022/06/10 08:39:52;;;;;;;0.85;0.68;;;;;;;17.76;63.38;101725.91;5133625;28;20030;-80
2022/06/10 08:42:31;;;;;;;1.70;0.90;;;;;;;17.82;63.14;101719.47;5127776;28;20066;-80
2022/06/10 08:45:20;;;;;;;0.30;0.30;;;;;;;17.69;64.15;101724.44;5123761;28;20503;-80
2022/06/10 08:48:06;;;;;;;0.30;0.30;;;;;;;17.83;63.45;101719.41;5135293;28;20286;-80
2022/06/10 08:50:55;;;;;;;2.45;0.93;;;;;;;17.71;62.83;101717.28;5137847;28;20121;-79
2022/06/10 08:53:59;;;;;;;1.25;0.35;;;;;;;17.77;63.38;101711.69;5103027;28;20088;-80
2022/06/10 08:56:36;;;;;;;0.30;0.30;;;;;;;17.86;63.16;101707.78;5134574;28;20043;-80
2022/06/10 08:59:26;;;;;;;0.30;0.30;;;;;;;17.90;63.43;101712.91;5133486;28;20531;-80
2022/06/10 09:02:27;;;;;;;1.75;1.10;;;;;;;17.88;62.94;101712.13;5135167;28;20069;-80
2022/06/10 09:05:26;;;;;;;0.30;0.30;;;;;;;17.90;62.99;101709.41;5097900;28;20067;-80
2022/06/10 09:08:00;;;;;;;0.60;0.60;;;;;;;18.02;63.55;101706.25;5139429;28;20039;-80
2022/06/10 09:10:31;;;;;;;0.30;0.30;;;;;;;18.05;63.11;101705.28;5131110;28;20042;-80
2022/06/10 09:13:25;;;;;;;0.55;0.55;;;;;;;18.17;63.45;101710.03;5137619;28;20049;-80
2022/06/10 09:16:07;;;;;;;0.47;0.47;;;;;;;18.17;63.47;101701.22;5131052;28;20050;-80
2022/06/10 09:18:58;;;;;;;0.28;0.28;;;;;;;18.21;63.60;101708.09;5121848;28;20269;-79
2022/06/10 09:22:10;;;;;;;0.20;0.20;;;;;;;18.28;63.02;101714.03;5117470;28;20121;-81
2022/06/10 09:24:47;;;;;;;0.30;0.30;;;;;;;18.33;62.69;101719.97;5097425;28;20061;-79
2022/06/10 09:27:26;;;;;;;0.30;0.30;;;;;;;18.31;61.89;101713.88;5108061;28;20065;-80
2022/06/10 09:29:57;;;;;;;0.30;0.30;;;;;;;18.39;61.92;101717.06;5136086;28;20038;-79
2022/06/10 09:32:28;;;;;;;0.40;0.40;;;;;;;18.49;61.82;101714.88;5142496;28;20519;-80
2022/06/10 09:35:11;;;;;;;0.20;0.20;;;;;;;18.40;61.88;101713.47;5113948;28;20043;-80
2022/06/10 09:37:45;;;;;;;;;;;;;;;18.44;61.20;101714.19;5106817;28;20251;-79
2022/06/10 09:40:37;;;;;;;0.20;0.20;;;;;;;18.47;61.51;101698.97;5130652;28;20512;-80
2022/06/10 09:43:36;;;;;;;6.00;0.98;;;;;;;18.54;61.04;101704.88;5130597;28;20753;-79
2022/06/10 09:46:29;;;;;;;0.70;0.40;;;;;;;18.61;61.21;101706.34;5118679;28;20078;-80
2022/06/10 09:49:44;;;;;;;0.30;0.30;;;;;;;18.71;61.02;101696.16;5142545;28;20037;-79
2022/06/10 09:52:33;;;;;;;0.45;0.45;;;;;;;18.74;60.87;101695.16;5107361;28;20111;-80
2022/06/10 09:55:15;;;;;;;1.27;0.60;;;;;;;18.83;60.60;101686.75;5132265;28;20031;-80
2022/06/10 09:58:17;;;;;;;0.50;0.50;;;;;;;18.96;60.85;101679.09;5126536;28;20046;-81
2022/06/10 10:01:05;;;;;;;0.80;0.80;;;;;;;19.06;60.00;101682.19;5116233;28;20077;-79
2022/06/10 10:03:59;;;;;;;0.20;0.20;;;;;;;19.18;60.60;101674.47;5113646;28;20104;-80
2022/06/10 10:06:36;;;;;;;0.30;0.30;;;;;;;19.27;61.06;101677.63;5119063;28;20494;-80
2022/06/10 10:09:36;;;;;;;0.20;0.20;;;;;;;19.30;59.29;101678.34;5118104;28;20039;-80
2022/06/10 10:12:42;;;;;;;0.20;0.20;;;;;;;19.40;59.63;101669.91;5145547;28;20134;-80
2022/06/10 10:15:35;;;;;;;0.20;0.20;;;;;;;19.48;59.46;101670.38;5096323;28;20038;-80
2022/06/10 10:18:34;;;;;;;0.77;0.77;;;;;;;19.59;59.40;101672.50;5147939;28;20763;-79
2022/06/10 10:21:11;;;;;;;2.08;0.47;;;;;;;19.66;58.17;101666.81;5118270;28;20050;-80
2022/06/10 10:23:51;;;;;;;0.25;0.25;;;;;;;19.73;58.70;101669.16;5113139;29;20059;-80
2022/06/10 10:26:28;;;;;;;0.47;0.47;;;;;;;19.82;58.48;101666.88;5115008;28;20037;-80
2022/06/10 10:29:15;;;;;;;0.20;0.20;;;;;;;19.90;57.88;101660.31;5149311;28;20026;-80
2022/06/10 10:31:59;;;;;;;0.35;0.35;;;;;;;19.96;58.52;101665.31;5136157;28;20043;-80
2022/06/10 10:34:36;;;;;;;0.65;0.50;;;;;;;20.05;57.86;101661.34;5116259;28;20563;-80
2022/06/10 10:37:29;;;;;;;0.30;0.30;;;;;;;20.05;57.75;101659.53;5118664;28;20045;-80
2022/06/10 10:40:20;;;;;;;0.47;0.47;;;;;;;20.17;58.82;101657.16;5130085;28;20027;-80
2022/06/10 10:42:55;;;;;;;0.20;0.20;;;;;;;20.27;58.11;101658.41;5138012;28;20041;-80
2022/06/10 10:45:36;;;;;;;0.82;0.82;;;;;;;20.35;58.08;101652.66;5108122;28;20054;-81
2022/06/10 10:48:30;;;;;;;0.30;0.30;;;;;;;20.39;56.95;101656.88;5117796;28;20034;-82
2022/06/10 10:51:11;;;;;;;0.30;0.30;;;;;;;20.43;57.00;101653.97;5109888;28;20114;-81
2022/06/10 10:53:48;;;;;;;0.30;0.30;;;;;;;20.56;57.75;101655.97;5118678;28;20380;-80
2022/06/10 10:56:36;;;;;;;0.32;0.32;;;;;;;20.53;55.63;101664.16;5112918;28;20740;-81
2022/06/10 10:59:22;;;;;;;0.20;0.20;;;;;;;20.63;56.03;101660.00;5131819;28;20042;-81
2022/06/10 11:01:54;;;;;;;0.30;0.30;;;;;;;20.68;56.20;101652.63;5119635;28;20039;-80
2022/06/10 11:04:35;;;;;;;1.15;1.05;;;;;;;20.71;56.16;101665.78;5127993;28;20474;-80
2022/06/10 11:07:11;;;;;;;0.32;0.32;;;;;;;20.84;56.56;101654.47;5095705;28;20038;-81
2022/06/10 11:09:48;;;;;;;0.30;0.30;;;;;;;20.89;55.64;101661.28;5134035;28;20039;-81
2022/06/10 11:12:21;;;;;;;0.47;0.47;;;;;;;20.89;55.71;101657.75;5126361;28;20044;-80
2022/06/10 11:15:16;;;;;;;0.20;0.20;;;;;;;20.97;56.44;101658.19;5099506;28;20770;-81
2022/06/10 11:17:49;;;;;;;0.20;0.20;;;;;;;21.09;57.14;101661.09;5108923;28;20047;-81
2022/06/10 11:20:30;;;;;;;0.45;0.43;;;;;;;21.11;54.62;101661.88;5108644;28;20110;-81
2022/06/10 11:23:29;;;;;;;1.77;0.65;;;;;;;21.15;54.61;101664.28;5133758;28;20455;-80
2022/06/10 11:26:20;;;;;;;1.45;0.73;;;;;;;21.24;55.10;101662.91;5108586;28;20504;-80
2022/06/10 11:29:11;;;;;;;0.40;0.40;;;;;;;21.32;55.02;101652.63;5115216;28;20030;-81
2022/06/10 11:31:55;;;;;;;0.28;0.28;;;;;;;21.35;54.79;101647.13;5146457;28;20532;-81
2022/06/10 11:34:40;;;;;;;0.30;0.30;;;;;;;21.48;55.88;101651.75;5137156;28;20065;-81
2022/06/10 11:37:31;;;;;;;0.30;0.30;;;;;;;21.50;55.08;101644.50;5094014;28;20781;-81
2022/06/10 11:40:08;;;;;;;0.20;0.20;;;;;;;21.59;55.28;101649.34;5122593;28;20109;-81
2022/06/10 11:42:48;;;;;;;0.35;0.35;;;;;;;21.62;54.36;101638.47;5116970;28;20058;-81
2022/06/10 11:45:24;;;;;;;0.63;0.63;;;;;;;21.64;53.38;101647.25;5124432;28;20424;-81
2022/06/10 11:47:58;;;;;;;0.43;0.43;;;;;;;21.57;52.47;101645.88;5139875;28;20053;-82
2022/06/10 11:50:42;;;;;;;0.40;0.40;;;;;;;21.58;52.74;101638.72;5125535;28;20054;-81
2022/06/10 11:53:30;;;;;;;0.30;0.30;;;;;;;21.61;52.56;101639.41;5152972;28;20101;-81
2022/06/10 12:01:47;;;;;;;0.25;0.25;;;;;;;21.78;52.71;101625.06;5112136;28;20081;-81
2022/06/10 12:04:25;;;;;;;2.60;0.60;;;;;;;21.89;53.15;101627.09;5133665;28;20034;-81
2022/06/10 12:07:06;;;;;;;1.38;0.65;;;;;;;21.96;52.82;101619.56;5130142;28;20069;-79
2022/06/10 12:09:49;;;;;;;3.92;1.13;;;;;;;22.01;52.34;101620.13;5130963;28;20061;-80
2022/06/10 12:12:20;;;;;;;;;;;;;;;22.11;51.77;101620.41;5135616;28;20099;-80
2022/06/10 12:14:55;;;;;;;1.38;0.60;;;;;;;22.22;52.50;101615.28;5121486;28;19921;-80
2022/06/10 12:17:34;;;;;;;0.30;0.30;;;;;;;22.29;52.36;101618.44;5120700;28;20039;-81
2022/06/10 12:20:23;;;;;;;0.20;0.20;;;;;;;22.43;53.44;101609.56;5124711;28;20034;-80
2022/06/10 12:22:53;;;;;;;0.30;0.30;;;;;;;22.46;52.39;101599.53;5150044;28;20046;-82
2022/06/10 12:25:32;;;;;;;0.65;0.65;;;;;;;22.61;52.27;101600.34;5128449;28;23590;-81
2022/06/10 12:28:03;;;;;;;0.30;0.30;;;;;;;22.73;51.74;101603.22;5129378;28;20042;-81
2022/06/10 12:30:42;;;;;;;0.20;0.20;;;;;;;22.76;50.58;101600.34;5116384;28;20112;-82